Time;durP1;ratioP1;P1;durP2;ratioP2;P2;SDS_P1;SDS_P2;PMS_P1;PMS_P2;Temp;Humidity;BMP_temperature;BMP_pressure;BME280_temperature;BME280_humidity;BME280_pressure;Samples;Min_cycle;Max_cycle;Signal;HPM_P1;HPM_P2
2021/07/26 00:02:18;;;;;;;34.05;10.93;;;;;;;15.44;75.49;100406.25;4916235;29;20078;-58
2021/07/26 00:04:44;;;;;;;34.70;10.40;;;;;;;15.40;75.59;100412.53;4918787;29;20568;-61
2021/07/26 00:07:09;;;;;;;30.33;10.98;;;;;;;15.36;75.65;100408.28;4924898;29;20147;-59
2021/07/26 00:09:36;;;;;;;35.88;11.20;;;;;;;15.37;75.92;100414.41;4887229;29;20074;-59
2021/07/26 00:12:03;;;;;;;36.78;10.82;;;;;;;15.36;75.80;100410.03;4918744;29;20054;-59
2021/07/26 00:14:29;;;;;;;34.92;11.77;;;;;;;15.37;75.52;100420.53;4933863;29;20417;-59
2021/07/26 00:16:55;;;;;;;46.65;14.20;;;;;;;15.17;75.53;100386.06;4903864;29;20051;-59
2021/07/26 00:19:21;;;;;;;40.25;13.73;;;;;;;15.15;75.68;100385.25;4918992;29;20568;-59
2021/07/26 00:21:46;;;;;;;47.58;13.60;;;;;;;15.34;75.46;100425.91;4930085;29;20078;-61
2021/07/26 00:24:12;;;;;;;37.58;12.68;;;;;;;15.32;75.13;100425.09;4934252;29;20047;-58
2021/07/26 00:26:38;;;;;;;34.58;11.40;;;;;;;15.27;75.02;100408.59;4935489;29;20055;-56
2021/07/26 00:29:04;;;;;;;44.60;14.38;;;;;;;15.34;75.17;100418.00;4926712;29;20131;-59
2021/07/26 00:31:30;;;;;;;31.23;11.93;;;;;;;15.33;74.86;100418.91;4936395;29;20054;-57
2021/07/26 00:34:20;;;;;;;44.20;11.70;;;;;;;15.18;74.71;100393.06;4933960;29;20134;-61
2021/07/26 00:36:47;;;;;;;37.28;12.18;;;;;;;15.38;74.77;100424.03;4918878;29;20051;-60
2021/07/26 00:39:15;;;;;;;40.67;12.00;;;;;;;15.22;74.91;100394.69;4918618;29;20047;-58
2021/07/26 00:41:42;;;;;;;35.80;11.25;;;;;;;15.35;74.96;100421.50;4918131;29;20425;-61
2021/07/26 00:44:08;;;;;;;30.85;11.57;;;;;;;15.32;74.60;100414.56;4899898;29;20043;-59
2021/07/26 00:46:34;;;;;;;32.78;11.73;;;;;;;15.35;74.95;100425.00;4927373;29;20464;-59
2021/07/26 00:49:01;;;;;;;28.10;10.50;;;;;;;15.31;74.80;100431.28;4922410;29;20454;-59
2021/07/26 00:51:27;;;;;;;30.77;11.65;;;;;;;15.29;75.04;100427.84;4901675;29;20474;-58
2021/07/26 00:53:54;;;;;;;24.40;10.05;;;;;;;15.24;75.09;100424.50;4891775;29;20079;-61
2021/07/26 00:56:19;;;;;;;31.17;10.93;;;;;;;15.21;75.58;100429.88;4929536;29;20055;-58
2021/07/26 00:58:46;;;;;;;31.45;10.57;;;;;;;15.20;75.79;100425.50;4906613;29;20047;-59
2021/07/26 01:01:14;;;;;;;28.52;11.05;;;;;;;15.02;75.92;100415.56;4932924;29;20050;-60
2021/07/26 01:03:48;;;;;;;46.15;12.13;;;;;;;14.99;76.16;100413.00;4918820;29;20092;-59
2021/07/26 01:06:14;;;;;;;34.47;10.82;;;;;;;15.13;76.23;100426.63;4926394;29;20048;-59
2021/07/26 01:08:40;;;;;;;32.75;11.15;;;;;;;14.99;76.25;100407.75;4922682;29;20048;-59
2021/07/26 01:11:06;;;;;;;36.00;11.45;;;;;;;15.14;76.05;100430.97;4910940;29;20071;-60
2021/07/26 01:13:32;;;;;;;48.47;12.50;;;;;;;15.17;75.76;100425.59;4912444;29;20442;-60
2021/07/26 01:15:58;;;;;;;32.10;11.60;;;;;;;15.06;75.97;100417.19;4899851;29;20150;-60
2021/07/26 01:18:24;;;;;;;29.05;12.15;;;;;;;15.17;75.79;100422.97;4934593;29;20095;-60
2021/07/26 01:21:02;;;;;;;39.65;12.55;;;;;;;15.12;75.66;100425.75;4928792;29;20060;-59
2021/07/26 01:23:29;;;;;;;32.50;12.00;;;;;;;15.16;75.47;100426.50;4931684;29;20484;-57
2021/07/26 01:25:56;;;;;;;42.58;11.13;;;;;;;15.06;75.46;100414.53;4933317;29;20052;-58
2021/07/26 01:28:25;;;;;;;26.77;11.40;;;;;;;15.14;75.50;100429.19;4918114;29;20066;-57
2021/07/26 01:30:51;;;;;;;31.55;12.38;;;;;;;15.14;75.41;100433.59;4917050;29;20105;-60
2021/07/26 01:33:17;;;;;;;24.60;11.55;;;;;;;15.13;75.46;100432.75;4925416;29;20035;-58
2021/07/26 01:35:43;;;;;;;32.35;11.23;;;;;;;14.92;75.68;100400.03;4920879;29;20143;-58
2021/07/26 01:38:09;;;;;;;34.70;12.43;;;;;;;14.98;75.68;100411.28;4882654;29;20395;-58
2021/07/26 01:40:38;;;;;;;33.92;12.02;;;;;;;15.16;75.49;100439.69;4917738;29;20052;-59
2021/07/26 01:43:07;;;;;;;34.67;11.65;;;;;;;15.14;75.48;100442.38;4906595;29;20055;-59
2021/07/26 01:45:33;;;;;;;37.85;11.32;;;;;;;15.00;75.53;100420.00;4942317;28;20505;-56
2021/07/26 01:48:03;;;;;;;43.95;11.35;;;;;;;15.15;75.51;100441.47;4916158;29;20046;-59
2021/07/26 01:50:35;;;;;;;42.78;12.45;;;;;;;15.09;75.65;100430.25;4925732;29;20142;-57
2021/07/26 01:53:01;;;;;;;22.63;11.30;;;;;;;15.16;75.53;100444.97;4891316;29;20075;-57
2021/07/26 01:55:27;;;;;;;28.15;12.38;;;;;;;15.10;75.40;100438.09;4933980;29;20050;-55
2021/07/26 01:57:53;;;;;;;39.22;12.75;;;;;;;14.93;75.74;100429.88;4948845;29;20496;-58
2021/07/26 02:00:19;;;;;;;39.55;12.20;;;;;;;15.01;75.66;100458.63;4922379;29;20047;-57
2021/07/26 02:02:44;;;;;;;35.00;12.85;;;;;;;15.10;75.69;100447.78;4910481;29;21010;-59
2021/07/26 02:05:11;;;;;;;35.90;12.93;;;;;;;15.05;75.65;100447.06;4910176;29;20038;-58
2021/07/26 02:07:37;;;;;;;31.10;17.33;;;;;;;15.19;74.98;100452.78;4886719;29;20050;-58
2021/07/26 02:10:03;;;;;;;28.15;12.20;;;;;;;15.10;75.03;100438.09;4916336;29;20052;-60
2021/07/26 02:12:29;;;;;;;36.38;16.25;;;;;;;15.21;74.73;100453.59;4883956;29;20083;-58
2021/07/26 02:14:55;;;;;;;40.75;24.67;;;;;;;15.29;74.28;100453.34;4918108;29;20161;-57
2021/07/26 02:17:20;;;;;;;34.67;13.20;;;;;;;15.35;74.47;100458.41;4924050;29;20146;-59
2021/07/26 02:19:46;;;;;;;32.20;16.38;;;;;;;15.24;74.12;100430.63;4915801;29;20048;-58
2021/07/26 02:22:12;;;;;;;32.25;14.48;;;;;;;15.47;74.06;100458.00;4892555;29;20047;-59
2021/07/26 02:24:38;;;;;;;35.60;16.52;;;;;;;15.53;73.87;100463.09;4930617;29;20049;-58
2021/07/26 02:27:04;;;;;;;36.53;18.20;;;;;;;15.51;73.61;100465.75;4920132;29;20501;-60
2021/07/26 02:29:30;;;;;;;37.22;19.50;;;;;;;15.53;73.15;100463.94;4926974;29;20526;-56
2021/07/26 02:31:56;;;;;;;29.67;17.15;;;;;;;15.41;73.43;100440.63;4920611;29;20417;-58
2021/07/26 02:34:21;;;;;;;48.95;21.75;;;;;;;15.67;72.75;100470.59;4914277;29;20052;-61
2021/07/26 02:36:47;;;;;;;44.70;27.13;;;;;;;15.72;72.09;100473.94;4897212;29;20055;-59
2021/07/26 02:39:13;;;;;;;41.78;29.75;;;;;;;15.55;71.65;100445.44;4932641;29;20040;-60
2021/07/26 02:41:42;;;;;;;40.13;20.65;;;;;;;15.78;72.04;100463.19;4932483;29;20111;-57
2021/07/26 02:44:08;;;;;;;32.05;20.30;;;;;;;15.77;72.04;100461.47;4909089;29;20032;-58
2021/07/26 02:46:34;;;;;;;36.17;22.50;;;;;;;15.64;71.23;100436.41;4923162;29;20046;-60
2021/07/26 02:49:00;;;;;;;40.53;22.55;;;;;;;15.94;71.15;100469.66;4932327;29;20138;-60
2021/07/26 02:51:25;;;;;;;28.90;16.00;;;;;;;16.08;72.13;100472.69;4918388;29;20055;-57
2021/07/26 02:53:51;;;;;;;34.30;15.88;;;;;;;16.15;71.51;100473.31;4931626;29;20374;-59
2021/07/26 02:56:31;;;;;;;32.38;16.20;;;;;;;16.21;71.46;100481.88;4915353;29;20179;-57
2021/07/26 02:58:57;;;;;;;33.45;18.63;;;;;;;16.10;70.63;100448.88;4931252;29;20043;-61
2021/07/26 03:01:23;;;;;;;39.13;22.88;;;;;;;16.30;70.01;100491.25;4927313;29;20063;-55
2021/07/26 03:03:49;;;;;;;41.13;16.67;;;;;;;16.23;70.46;100457.22;4915306;29;20105;-56
2021/07/26 03:06:19;;;;;;;34.45;19.83;;;;;;;16.53;69.94;100485.16;4930664;29;20115;-59
2021/07/26 03:08:45;;;;;;;33.30;19.80;;;;;;;16.51;69.24;100450.91;4917620;29;20047;-63
2021/07/26 03:11:11;;;;;;;47.97;25.15;;;;;;;16.82;68.26;100487.63;4881544;29;20217;-59
2021/07/26 03:13:41;;;;;;;49.88;26.48;;;;;;;16.68;68.04;100458.22;4911610;29;20056;-59
2021/07/26 03:16:12;;;;;;;33.78;19.48;;;;;;;17.03;68.41;100487.72;4904648;29;20138;-55
2021/07/26 03:18:39;;;;;;;50.20;23.80;;;;;;;17.13;67.76;100491.75;4900525;29;20432;-60
2021/07/26 03:21:05;;;;;;;51.25;29.83;;;;;;;17.24;66.78;100486.91;4915386;29;20043;-57
2021/07/26 03:23:32;;;;;;;45.10;25.13;;;;;;;17.50;66.43;100492.91;4932425;29;20142;-55
2021/07/26 03:25:58;;;;;;;45.42;23.13;;;;;;;17.74;65.50;100460.19;4931774;29;20130;-57
2021/07/26 03:28:24;;;;;;;41.63;21.02;;;;;;;18.86;62.59;100487.97;4932519;29;20105;-57
2021/07/26 03:30:50;;;;;;;59.95;28.00;;;;;;;19.75;57.51;100469.53;4929447;29;20056;-57
2021/07/26 03:33:16;;;;;;;48.28;28.05;;;;;;;20.91;53.50;100485.59;4926667;29;20051;-59
2021/07/26 03:35:42;;;;;;;58.75;29.23;;;;;;;21.79;51.23;100489.50;4928742;29;20445;-58
2021/07/26 03:38:07;;;;;;;50.15;27.42;;;;;;;22.69;48.56;100487.63;4914810;29;20052;-60
2021/07/26 03:40:34;;;;;;;48.20;25.83;;;;;;;23.48;44.90;100492.38;4913628;29;20504;-59
2021/07/26 03:43:04;;;;;;;42.55;25.02;;;;;;;24.16;43.13;100472.72;4905638;29;20123;-60
2021/07/26 03:45:30;;;;;;;43.40;24.88;;;;;;;24.81;41.41;100492.22;4923084;29;20058;-58
2021/07/26 03:47:59;;;;;;;41.50;22.92;;;;;;;25.12;40.40;100493.56;4920117;29;20143;-62
2021/07/26 03:50:25;;;;;;;47.97;23.73;;;;;;;24.49;41.33;100464.19;4913373;29;20044;-57
2021/07/26 03:52:53;;;;;;;41.90;24.05;;;;;;;24.18;42.48;100485.00;4898259;29;20067;-60
2021/07/26 03:55:22;;;;;;;43.97;24.15;;;;;;;23.90;43.63;100487.88;4931674;28;20043;-60
2021/07/26 03:57:49;;;;;;;40.95;23.40;;;;;;;23.54;44.35;100477.75;4929800;29;20053;-59
2021/07/26 04:00:16;;;;;;;41.13;23.00;;;;;;;23.16;45.63;100488.28;4900241;29;20150;-61
2021/07/26 04:02:43;;;;;;;44.85;21.85;;;;;;;22.77;46.80;100484.47;4927347;29;20040;-58
2021/07/26 04:05:24;;;;;;;47.15;22.65;;;;;;;22.40;47.30;100475.22;4931786;29;20493;-59
2021/07/26 04:07:50;;;;;;;35.72;23.13;;;;;;;22.02;48.13;100481.00;4924669;29;20107;-58
2021/07/26 04:10:17;;;;;;;45.88;24.20;;;;;;;22.76;47.02;100472.06;4924653;29;20052;-59
2021/07/26 04:12:47;;;;;;;35.88;18.77;;;;;;;23.82;43.37;100463.47;4917912;29;20036;-60
2021/07/26 04:15:14;;;;;;;44.10;18.92;;;;;;;23.86;43.22;100481.88;4931915;29;20054;-58
2021/07/26 04:17:39;;;;;;;27.70;14.73;;;;;;;24.69;40.96;100445.78;4927088;29;20059;-61
2021/07/26 04:20:06;;;;;;;25.45;14.07;;;;;;;25.55;40.19;100477.03;4920794;29;20057;-59
2021/07/26 04:22:32;;;;;;;24.25;12.07;;;;;;;26.58;37.78;100481.66;4931431;29;20062;-60
2021/07/26 04:24:57;;;;;;;28.35;11.80;;;;;;;27.50;35.26;100478.69;4918810;29;20044;-61
2021/07/26 04:27:27;;;;;;;22.83;10.68;;;;;;;28.32;33.85;100470.03;4931648;29;20052;-60
2021/07/26 04:29:54;;;;;;;22.48;10.32;;;;;;;29.10;32.49;100475.66;4932954;29;20058;-59
2021/07/26 04:32:20;;;;;;;23.00;10.65;;;;;;;29.68;31.53;100474.91;4918954;29;20284;-63
2021/07/26 04:34:46;;;;;;;19.02;7.88;;;;;;;30.13;29.68;100482.44;4923629;29;20168;-60
2021/07/26 04:37:11;;;;;;;11.93;7.55;;;;;;;30.10;29.61;100472.81;4935792;29;20048;-59
2021/07/26 04:39:37;;;;;;;16.40;7.30;;;;;;;30.23;29.59;100467.94;4925389;29;20051;-59
2021/07/26 04:42:03;;;;;;;18.75;7.70;;;;;;;30.56;28.86;100466.59;4915977;29;20067;-59
2021/07/26 04:44:29;;;;;;;14.82;7.93;;;;;;;30.51;28.85;100443.72;4924889;29;20050;-59
2021/07/26 04:46:55;;;;;;;19.48;7.47;;;;;;;30.72;28.76;100457.03;4935174;29;20036;-59
2021/07/26 04:49:22;;;;;;;17.33;7.80;;;;;;;31.27;28.34;100464.16;4933703;29;20047;-59
2021/07/26 04:51:49;;;;;;;18.77;8.52;;;;;;;31.85;27.49;100465.59;4919292;29;20119;-61
2021/07/26 04:54:15;;;;;;;14.88;7.97;;;;;;;32.26;26.65;100461.38;4933836;29;20054;-57
2021/07/26 04:56:40;;;;;;;14.85;7.35;;;;;;;32.55;25.83;100466.47;4920873;29;20362;-62
2021/07/26 04:59:06;;;;;;;14.80;8.10;;;;;;;32.76;26.36;100457.94;4916762;29;20072;-61
2021/07/26 05:01:32;;;;;;;23.50;7.28;;;;;;;33.02;25.76;100458.75;4915710;29;20785;-57
2021/07/26 05:03:57;;;;;;;10.85;6.90;;;;;;;32.94;25.55;100444.34;4920348;29;20078;-58
2021/07/26 05:06:23;;;;;;;21.02;6.95;;;;;;;33.54;24.78;100452.31;4933071;29;20055;-59
2021/07/26 05:08:49;;;;;;;12.73;6.70;;;;;;;34.02;24.29;100470.50;4933540;29;20047;-58
2021/07/26 05:11:20;;;;;;;11.98;7.43;;;;;;;34.38;23.78;100465.59;4923049;29;20082;-59
2021/07/26 05:13:46;;;;;;;15.43;6.80;;;;;;;34.58;23.44;100436.97;4930222;29;20046;-59
2021/07/26 05:16:12;;;;;;;13.65;6.15;;;;;;;34.83;23.02;100450.50;4914453;29;20044;-63
2021/07/26 05:18:37;;;;;;;14.02;6.15;;;;;;;34.91;22.67;100447.75;4914803;29;20524;-57
2021/07/26 05:21:03;;;;;;;20.63;6.88;;;;;;;34.84;22.55;100430.44;4917409;29;20139;-59
2021/07/26 05:23:29;;;;;;;16.27;5.80;;;;;;;34.90;22.95;100457.78;4923544;29;20190;-61
2021/07/26 05:25:55;;;;;;;15.57;6.00;;;;;;;34.98;22.78;100455.06;4921046;29;20055;-58
2021/07/26 05:28:21;;;;;;;15.00;5.45;;;;;;;35.17;23.01;100447.47;4908016;29;20043;-60
2021/07/26 05:30:48;;;;;;;15.02;5.78;;;;;;;35.67;22.44;100450.56;4921557;29;20048;-61
2021/07/26 05:33:14;;;;;;;14.13;5.53;;;;;;;36.04;21.92;100451.63;4931116;29;20094;-59
2021/07/26 05:35:41;;;;;;;13.88;5.97;;;;;;;36.01;21.29;100446.56;4925174;29;20047;-59
2021/07/26 05:38:08;;;;;;;16.00;5.40;;;;;;;36.46;20.98;100444.78;4915115;29;20047;-57
2021/07/26 05:40:33;;;;;;;14.95;6.13;;;;;;;35.58;22.18;100418.97;4932498;29;20047;-60
2021/07/26 05:43:00;;;;;;;15.10;5.97;;;;;;;35.08;23.46;100437.66;4928008;29;20067;-61
2021/07/26 05:45:26;;;;;;;11.68;6.00;;;;;;;35.50;23.14;100443.53;4914832;29;20052;-58
2021/07/26 05:47:52;;;;;;;10.45;5.55;;;;;;;35.65;22.76;100451.75;4926422;29;20039;-61
2021/07/26 05:50:19;;;;;;;14.38;5.60;;;;;;;36.12;22.13;100453.44;4919822;29;20406;-62
2021/07/26 05:52:48;;;;;;;13.25;5.15;;;;;;;35.97;22.28;100450.69;4915196;29;20560;-61
2021/07/26 05:55:15;;;;;;;17.80;5.80;;;;;;;35.69;22.89;100436.78;4916755;29;20559;-60
2021/07/26 05:57:49;;;;;;;10.93;5.60;;;;;;;35.95;22.86;100448.16;4930385;29;20051;-62
2021/07/26 06:00:17;;;;;;;12.55;5.05;;;;;;;35.92;23.03;100440.34;4901232;29;20501;-61
2021/07/26 06:02:43;;;;;;;9.48;4.80;;;;;;;36.20;22.05;100446.03;4931029;29;20058;-61
2021/07/26 06:05:09;;;;;;;8.27;4.47;;;;;;;36.05;21.28;100436.97;4931020;29;20051;-61
2021/07/26 06:07:35;;;;;;;10.70;4.50;;;;;;;36.13;21.39;100423.28;4912639;29;20048;-61
2021/07/26 06:10:01;;;;;;;5.75;2.40;;;;;;;36.57;18.57;100433.41;4913296;29;20063;-62
2021/07/26 06:12:29;;;;;;;3.65;2.33;;;;;;;36.84;18.61;100438.19;4914267;29;20044;-60
2021/07/26 06:14:54;;;;;;;4.55;2.45;;;;;;;36.53;18.29;100434.81;4897949;29;20051;-61
2021/07/26 06:17:20;;;;;;;4.15;2.42;;;;;;;35.49;18.91;100401.00;4924365;29;20055;-61
2021/07/26 06:19:46;;;;;;;11.15;2.50;;;;;;;36.22;18.88;100427.63;4922391;29;20450;-62
2021/07/26 06:22:11;;;;;;;7.03;2.10;;;;;;;36.46;17.83;100399.28;4931052;29;20052;-60
2021/07/26 06:24:37;;;;;;;12.10;2.35;;;;;;;36.74;17.55;100425.88;4930379;29;20048;-60
2021/07/26 06:27:03;;;;;;;3.67;1.90;;;;;;;36.82;16.85;100406.69;4914515;29;20418;-61
2021/07/26 06:29:29;;;;;;;3.38;2.00;;;;;;;36.96;16.25;100422.19;4921762;29;20036;-60
2021/07/26 06:31:58;;;;;;;4.13;1.60;;;;;;;37.26;16.37;100436.66;4915961;29;20261;-60
2021/07/26 06:34:24;;;;;;;4.13;2.00;;;;;;;37.43;16.24;100421.72;4886484;29;20147;-62
2021/07/26 06:36:50;;;;;;;4.63;1.73;;;;;;;37.51;16.23;100407.91;4909737;29;20053;-61
2021/07/26 06:39:16;;;;;;;5.60;1.80;;;;;;;37.57;16.11;100427.28;4925695;29;20048;-60
2021/07/26 06:41:42;;;;;;;6.22;2.15;;;;;;;36.97;18.35;100410.25;4918809;29;20099;-60
2021/07/26 06:44:08;;;;;;;7.63;2.28;;;;;;;36.19;18.82;100427.13;4927509;29;20043;-65
2021/07/26 06:46:34;;;;;;;10.20;1.90;;;;;;;36.52;17.99;100428.53;4930903;29;20118;-60
2021/07/26 06:49:01;;;;;;;1.65;1.55;;;;;;;36.10;17.23;100404.59;4941480;29;20050;-61
2021/07/26 06:51:27;;;;;;;7.38;1.80;;;;;;;36.35;17.09;100423.41;4920065;29;20048;-61
2021/07/26 06:53:53;;;;;;;9.13;1.90;;;;;;;35.46;18.15;100428.59;4920921;29;20854;-61
2021/07/26 06:56:19;;;;;;;3.92;1.65;;;;;;;35.14;18.01;100412.47;4914518;29;21052;-60
2021/07/26 06:58:45;;;;;;;6.78;1.90;;;;;;;35.59;17.47;100426.09;4892307;29;20148;-59
2021/07/26 07:01:12;;;;;;;3.15;1.52;;;;;;;36.78;16.70;100422.59;4904164;29;20104;-60
2021/07/26 07:03:39;;;;;;;4.93;1.90;;;;;;;37.71;16.21;100434.59;4897462;29;20064;-60
2021/07/26 07:06:06;;;;;;;3.63;1.73;;;;;;;36.95;15.38;100404.13;4912995;29;20032;-61
2021/07/26 07:08:32;;;;;;;10.00;2.10;;;;;;;37.55;15.62;100432.94;4946853;29;20039;-63
2021/07/26 07:11:08;;;;;;;3.78;1.85;;;;;;;36.73;16.65;100433.19;4918011;29;20613;-61
2021/07/26 07:13:37;;;;;;;4.00;2.08;;;;;;;36.39;17.14;100430.19;4915811;29;20539;-60
2021/07/26 07:16:11;;;;;;;6.78;2.30;;;;;;;35.69;17.64;100435.94;4930309;29;20040;-61
2021/07/26 07:18:38;;;;;;;5.32;2.30;;;;;;;35.87;17.46;100440.06;4925228;29;20080;-60
2021/07/26 07:21:04;;;;;;;3.33;2.03;;;;;;;34.99;18.22;100431.44;4878270;29;20051;-59
2021/07/26 07:23:30;;;;;;;3.40;1.85;;;;;;;34.83;18.07;100440.47;4878152;29;20513;-60
2021/07/26 07:25:57;;;;;;;2.17;1.90;;;;;;;35.45;17.43;100439.66;4928072;29;20493;-62
2021/07/26 07:28:23;;;;;;;5.47;2.15;;;;;;;35.61;17.76;100428.66;4931390;29;20046;-62
2021/07/26 07:30:49;;;;;;;2.80;1.83;;;;;;;35.69;17.51;100409.56;4929845;29;20515;-62
2021/07/26 07:33:14;;;;;;;3.53;2.15;;;;;;;36.69;16.77;100429.16;4928722;29;20185;-59
2021/07/26 07:35:40;;;;;;;3.55;2.00;;;;;;;37.01;16.65;100411.53;4914168;29;20501;-60
2021/07/26 07:38:08;;;;;;;6.55;2.00;;;;;;;36.42;16.82;100410.75;4914163;29;20491;-62
2021/07/26 07:40:35;;;;;;;10.82;2.20;;;;;;;36.36;17.10;100427.84;4914749;29;20173;-61
2021/07/26 07:43:01;;;;;;;6.10;2.40;;;;;;;35.62;17.97;100424.91;4913167;29;20139;-59
2021/07/26 07:45:26;;;;;;;3.33;1.73;;;;;;;33.32;19.86;100394.09;4908876;29;20047;-58
2021/07/26 07:47:55;;;;;;;2.65;2.03;;;;;;;33.67;19.77;100429.09;4931464;29;20055;-61
2021/07/26 07:50:21;;;;;;;5.13;1.73;;;;;;;32.72;20.48;100414.06;4913969;29;20044;-68
2021/07/26 07:52:47;;;;;;;6.75;1.90;;;;;;;32.24;20.86;100414.66;4912510;29;20056;-61
2021/07/26 07:55:13;;;;;;;4.13;1.90;;;;;;;32.34;20.63;100398.28;4913207;29;20122;-60
2021/07/26 07:57:38;;;;;;;2.65;1.90;;;;;;;32.84;20.46;100429.06;4918566;29;20044;-62
2021/07/26 08:00:06;;;;;;;8.57;2.58;;;;;;;33.91;19.81;100422.81;4920064;29;20078;-60
2021/07/26 08:02:33;;;;;;;4.03;2.30;;;;;;;33.04;20.44;100402.50;4929142;29;20497;-61
2021/07/26 08:04:58;;;;;;;3.40;1.90;;;;;;;32.23;20.36;100423.75;4925543;29;20036;-59
2021/07/26 08:07:24;;;;;;;3.15;2.38;;;;;;;32.88;20.44;100431.44;4916109;29;20082;-61
2021/07/26 08:09:50;;;;;;;2.20;2.00;;;;;;;31.84;21.94;100413.31;4914870;29;20078;-61
2021/07/26 08:12:15;;;;;;;2.35;1.88;;;;;;;30.79;23.63;100406.81;4916149;29;20124;-63
2021/07/26 08:14:41;;;;;;;5.50;1.90;;;;;;;30.90;23.06;100422.81;4931726;29;20050;-59
2021/07/26 08:17:08;;;;;;;4.63;1.90;;;;;;;30.67;23.04;100422.38;4931986;29;20047;-62
2021/07/26 08:19:34;;;;;;;7.25;1.92;;;;;;;30.53;23.58;100404.78;4911618;29;20048;-59
2021/07/26 08:22:00;;;;;;;6.00;2.08;;;;;;;30.22;23.63;100398.75;4922953;29;20043;-61
2021/07/26 08:24:26;;;;;;;9.93;2.00;;;;;;;30.18;24.04;100426.19;4933319;29;20468;-61
2021/07/26 08:26:52;;;;;;;8.85;2.28;;;;;;;30.04;24.42;100425.66;4933679;29;20066;-61
2021/07/26 08:29:18;;;;;;;1.70;1.60;;;;;;;29.79;24.58;100420.00;4919778;29;20074;-61
2021/07/26 08:31:43;;;;;;;3.60;1.88;;;;;;;29.46;24.96;100422.09;4926290;29;20474;-60
2021/07/26 08:34:09;;;;;;;3.10;1.80;;;;;;;29.19;24.93;100401.22;4916976;29;20048;-61
2021/07/26 08:36:35;;;;;;;5.57;2.30;;;;;;;29.70;24.29;100397.41;4931671;29;20055;-64
2021/07/26 08:39:01;;;;;;;2.63;1.50;;;;;;;28.95;25.00;100400.72;4918718;29;20048;-58
2021/07/26 08:41:27;;;;;;;4.93;1.50;;;;;;;29.18;25.28;100418.38;4927228;29;20070;-60
2021/07/26 08:43:53;;;;;;;2.92;1.60;;;;;;;29.00;25.41;100422.75;4933252;29;20502;-61
2021/07/26 08:46:20;;;;;;;4.90;2.00;;;;;;;28.65;26.19;100413.22;4932685;29;20579;-60
2021/07/26 08:48:49;;;;;;;4.25;1.60;;;;;;;28.04;27.02;100405.09;4912834;29;20442;-61
2021/07/26 08:51:17;;;;;;;6.95;2.42;;;;;;;30.19;24.99;100422.50;4883929;29;20040;-60
2021/07/26 08:53:44;;;;;;;3.97;2.30;;;;;;;32.22;21.64;100416.66;4915605;29;20040;-61
2021/07/26 08:56:10;;;;;;;10.07;2.70;;;;;;;32.68;20.92;100419.94;4914842;29;20040;-61
2021/07/26 08:58:39;;;;;;;4.45;2.45;;;;;;;33.01;20.50;100424.53;4919600;29;20055;-62
2021/07/26 09:01:05;;;;;;;8.40;2.45;;;;;;;33.96;19.43;100417.72;4932269;29;20051;-62
2021/07/26 09:03:31;;;;;;;3.80;1.65;;;;;;;31.86;21.35;100411.31;4932961;29;20047;-61
2021/07/26 09:05:57;;;;;;;3.10;2.20;;;;;;;31.72;21.52;100392.09;4934380;29;20207;-59
2021/07/26 09:08:22;;;;;;;2.25;2.03;;;;;;;31.72;22.17;100386.66;4925333;29;20050;-58
2021/07/26 09:10:48;;;;;;;4.30;1.60;;;;;;;30.84;22.94;100407.19;4915484;29;20040;-62
2021/07/26 09:13:32;;;;;;;4.93;1.85;;;;;;;30.06;24.44;100409.31;4915303;29;20047;-59
2021/07/26 09:16:22;;;;;;;2.60;1.90;;;;;;;29.52;25.04;100391.03;4912930;29;20043;-61
2021/07/26 09:19:07;;;;;;;3.08;1.90;;;;;;;29.05;25.48;100404.31;4926100;29;20142;-60
2021/07/26 09:21:55;;;;;;;4.28;1.80;;;;;;;28.60;25.10;100372.41;4914624;29;20047;-61
2021/07/26 09:24:25;;;;;;;2.90;1.90;;;;;;;29.15;24.57;100402.47;4898728;29;20055;-60
2021/07/26 09:26:52;;;;;;;5.03;2.10;;;;;;;29.44;24.59;100398.97;4927006;29;20044;-63
2021/07/26 09:29:28;;;;;;;1.92;1.80;;;;;;;28.62;24.71;100397.34;4916204;29;20411;-61
2021/07/26 09:31:59;;;;;;;4.55;1.80;;;;;;;28.60;24.81;100398.47;4900776;29;20044;-62
2021/07/26 09:34:24;;;;;;;4.28;2.00;;;;;;;28.97;24.76;100390.66;4933020;29;20098;-61
2021/07/26 09:36:50;;;;;;;2.28;2.00;;;;;;;29.20;24.68;100365.19;4920180;29;20052;-61
2021/07/26 09:39:42;;;;;;;2.03;1.90;;;;;;;29.45;24.68;100390.75;4934286;28;20493;-60
2021/07/26 09:42:24;;;;;;;7.65;2.42;;;;;;;28.88;26.03;100392.34;4915098;29;20094;-61
2021/07/26 09:44:49;;;;;;;3.15;2.10;;;;;;;28.44;26.09;100386.38;4899801;29;20058;-61
2021/07/26 09:47:21;;;;;;;4.13;2.00;;;;;;;28.18;25.32;100375.16;4912942;29;20497;-59
2021/07/26 09:49:47;;;;;;;4.38;1.90;;;;;;;28.22;25.83;100382.97;4928641;29;20497;-61
2021/07/26 09:52:13;;;;;;;3.53;2.00;;;;;;;28.65;25.40;100399.78;4902281;29;20062;-60
2021/07/26 09:54:50;;;;;;;7.22;2.10;;;;;;;28.93;25.18;100400.00;4915400;29;20051;-61
2021/07/26 09:57:20;;;;;;;3.53;2.25;;;;;;;29.19;24.94;100382.34;4906006;29;20067;-60
2021/07/26 09:59:47;;;;;;;2.55;1.80;;;;;;;29.54;24.57;100381.81;4898416;29;20146;-59
2021/07/26 10:02:17;;;;;;;5.65;2.53;;;;;;;29.74;24.10;100385.38;4931253;29;20052;-61
2021/07/26 10:04:44;;;;;;;6.35;3.10;;;;;;;29.74;24.29;100379.97;4924806;29;20048;-60
2021/07/26 10:07:14;;;;;;;7.10;2.55;;;;;;;29.71;22.86;100374.81;4913986;29;20070;-60
2021/07/26 10:09:41;;;;;;;5.75;2.78;;;;;;;29.60;23.08;100350.72;4914391;29;20437;-61
2021/07/26 10:12:14;;;;;;;2.55;2.08;;;;;;;29.71;21.98;100361.34;4915178;29;20087;-62
2021/07/26 10:14:45;;;;;;;7.80;2.13;;;;;;;29.85;22.80;100365.47;4921264;29;20059;-61
2021/07/26 10:17:11;;;;;;;8.25;2.70;;;;;;;30.26;22.27;100364.22;4930922;29;20043;-60
2021/07/26 10:19:37;;;;;;;3.10;2.30;;;;;;;30.24;22.43;100361.66;4920873;29;20047;-61
2021/07/26 10:22:05;;;;;;;4.32;2.20;;;;;;;30.18;22.42;100364.13;4911679;29;20145;-63
2021/07/26 10:24:37;;;;;;;4.00;2.53;;;;;;;30.31;22.20;100365.47;4878938;29;20470;-62
2021/07/26 10:27:10;;;;;;;6.20;2.88;;;;;;;30.22;22.83;100366.38;4944097;28;20050;-61
2021/07/26 10:29:51;;;;;;;3.50;2.25;;;;;;;30.37;22.80;100361.34;4918980;29;20052;-60
2021/07/26 10:32:29;;;;;;;7.10;2.28;;;;;;;30.50;23.11;100359.16;4914747;29;20091;-61
2021/07/26 10:35:02;;;;;;;6.38;2.63;;;;;;;30.37;23.59;100350.53;4901420;29;20056;-64
2021/07/26 10:37:41;;;;;;;7.78;3.03;;;;;;;30.16;23.27;100347.22;4932114;29;20074;-60
2021/07/26 10:40:23;;;;;;;2.60;2.17;;;;;;;29.72;23.75;100354.94;4916038;29;20036;-62
2021/07/26 10:42:51;;;;;;;2.10;2.00;;;;;;;29.86;23.58;100346.44;4931388;29;20071;-59
2021/07/26 10:45:32;;;;;;;3.78;2.08;;;;;;;29.69;22.97;100355.25;4932182;29;20044;-62
2021/07/26 10:48:19;;;;;;;3.22;2.20;;;;;;;29.60;23.56;100340.78;4917281;29;20056;-63
2021/07/26 10:50:46;;;;;;;2.95;2.22;;;;;;;29.41;23.50;100335.38;4913537;29;20652;-62
2021/07/26 10:53:32;;;;;;;3.15;2.22;;;;;;;29.72;22.99;100349.56;4924689;29;20071;-62
2021/07/26 10:56:09;;;;;;;8.70;2.63;;;;;;;29.38;23.16;100323.06;4926501;29;20485;-63
2021/07/26 10:58:40;;;;;;;4.25;2.50;;;;;;;29.27;24.09;100355.53;4931777;29;20135;-66
2021/07/26 11:01:24;;;;;;;9.82;2.30;;;;;;;29.28;24.39;100351.00;4944414;29;20086;-63
2021/07/26 11:03:51;;;;;;;8.57;2.50;;;;;;;29.28;23.92;100353.69;4926960;29;20082;-58
2021/07/26 11:06:35;;;;;;;3.83;2.28;;;;;;;29.08;24.37;100355.53;4920442;29;20122;-57
2021/07/26 11:09:24;;;;;;;2.95;2.28;;;;;;;28.99;24.49;100354.53;4927885;29;20146;-60
2021/07/26 11:11:52;;;;;;;3.83;2.28;;;;;;;28.84;24.50;100322.72;4930329;29;20138;-60
2021/07/26 11:14:19;;;;;;;6.38;2.17;;;;;;;29.13;24.56;100347.88;4919443;29;20131;-62
2021/07/26 11:17:00;;;;;;;2.13;1.90;;;;;;;28.61;24.59;100324.78;4918228;29;20528;-62
2021/07/26 11:19:44;;;;;;;2.92;1.80;;;;;;;28.76;24.59;100345.81;4897120;29;20421;-62
2021/07/26 11:22:21;;;;;;;2.20;2.00;;;;;;;28.53;24.82;100338.94;4917319;29;20055;-61